createdAt,value
2022-11-08T00:02:20.170Z,82.38
2022-11-08T00:04:47.015Z,82.57
2022-11-08T00:07:32.440Z,82.56
2022-11-08T00:10:16.836Z,82.32
2022-11-08T00:13:01.229Z,82.41
2022-11-08T00:15:28.104Z,82.42
2022-11-08T00:17:54.839Z,82.34
2022-11-08T00:20:21.600Z,82.22
2022-11-08T00:22:48.426Z,82.20
2022-11-08T00:25:15.130Z,82.26
2022-11-08T00:27:41.909Z,82.10
2022-11-08T00:30:10.342Z,82.16
2022-11-08T00:32:37.077Z,82.18
2022-11-08T00:35:03.900Z,82.21
2022-11-08T00:37:30.627Z,82.10
2022-11-08T00:39:57.367Z,82.00
2022-11-08T00:42:24.069Z,82.08
2022-11-08T00:44:50.743Z,82.10
2022-11-08T00:47:17.474Z,82.04
2022-11-08T00:49:44.220Z,82.27
2022-11-08T00:52:10.942Z,82.23
2022-11-08T00:54:37.629Z,82.17
2022-11-08T00:57:04.433Z,82.17
2022-11-08T00:59:31.154Z,82.16
2022-11-08T01:01:57.957Z,82.08
2022-11-08T01:04:25.106Z,81.91
2022-11-08T01:06:51.848Z,81.86
2022-11-08T01:09:18.646Z,81.72
2022-11-08T01:11:47.842Z,81.85
2022-11-08T01:14:15.711Z,81.79
2022-11-08T01:16:42.491Z,81.75
2022-11-08T01:19:09.373Z,81.78
2022-11-08T01:21:36.312Z,81.81
2022-11-08T01:24:03.577Z,81.79
2022-11-08T01:26:31.196Z,81.74
2022-11-08T01:28:58.747Z,81.68
2022-11-08T01:31:27.141Z,81.63
2022-11-08T01:33:54.531Z,81.57
2022-11-08T01:36:23.970Z,81.57
2022-11-08T01:38:51.044Z,81.45
2022-11-08T01:41:19.421Z,81.38
2022-11-08T01:43:47.247Z,81.31
2022-11-08T01:46:34.753Z,81.28
2022-11-08T01:49:01.657Z,81.32
2022-11-08T01:51:32.214Z,81.17
2022-11-08T01:54:00.091Z,81.28
2022-11-08T01:56:27.635Z,81.13
2022-11-08T01:58:57.475Z,81.02
2022-11-08T02:01:24.580Z,81.05
2022-11-08T02:03:52.452Z,81.19
2022-11-08T02:06:19.817Z,81.24
2022-11-08T02:08:47.180Z,81.05
2022-11-08T02:11:17.085Z,81.19
2022-11-08T02:13:44.245Z,81.24
2022-11-08T02:16:14.500Z,81.16
2022-11-08T02:18:42.289Z,81.05
2022-11-08T02:21:15.237Z,81.11
2022-11-08T02:23:48.237Z,81.11
2022-11-08T02:26:16.332Z,80.93
2022-11-08T02:28:44.703Z,80.92
2022-11-08T02:31:12.852Z,80.89
2022-11-08T02:33:40.111Z,80.95
2022-11-08T02:36:08.354Z,80.93
2022-11-08T02:38:39.934Z,80.93
2022-11-08T02:41:07.290Z,80.89
2022-11-08T02:43:34.241Z,80.92
2022-11-08T02:46:01.966Z,81.13
2022-11-08T02:48:29.230Z,81.00
2022-11-08T02:50:56.129Z,81.04
2022-11-08T02:53:23.071Z,81.10
2022-11-08T02:55:49.949Z,81.01
2022-11-08T02:58:17.246Z,81.02
2022-11-08T03:00:44.239Z,81.04
2022-11-08T03:03:11.608Z,81.12
2022-11-08T03:05:38.494Z,81.15
2022-11-08T03:08:05.582Z,81.24
2022-11-08T03:10:32.552Z,81.26
2022-11-08T03:13:00.623Z,81.37
2022-11-08T03:15:28.232Z,81.27
2022-11-08T03:17:56.373Z,81.38
2022-11-08T03:20:23.964Z,81.48
2022-11-08T03:22:57.804Z,81.40
2022-11-08T03:25:24.800Z,81.44
2022-11-08T03:27:51.694Z,81.39
2022-11-08T03:30:18.910Z,81.39
2022-11-08T03:32:46.919Z,81.28
2022-11-08T03:35:13.831Z,81.23
2022-11-08T03:37:40.815Z,81.29
2022-11-08T03:40:09.859Z,81.39
2022-11-08T03:42:37.099Z,81.38
2022-11-08T03:45:04.503Z,81.48
2022-11-08T03:47:31.343Z,81.43
2022-11-08T03:49:58.126Z,81.38
2022-11-08T03:52:24.976Z,81.41
2022-11-08T03:54:51.798Z,81.44
2022-11-08T03:57:18.625Z,81.45
2022-11-08T03:59:45.382Z,81.58
2022-11-08T04:02:12.355Z,81.59
2022-11-08T04:04:39.595Z,81.55
2022-11-08T04:07:06.706Z,81.62
2022-11-08T04:09:34.012Z,81.65
2022-11-08T04:12:18.346Z,81.55
2022-11-08T04:15:02.975Z,81.61
2022-11-08T04:17:43.656Z,81.67
2022-11-08T04:20:29.651Z,81.72
2022-11-08T04:22:56.500Z,81.82
2022-11-08T04:25:23.450Z,81.78
2022-11-08T04:27:50.871Z,81.74
2022-11-08T04:30:17.797Z,81.89
2022-11-08T04:32:44.754Z,81.78
2022-11-08T04:35:12.003Z,81.76
2022-11-08T04:37:38.860Z,81.83
2022-11-08T04:40:06.230Z,81.88
2022-11-08T04:42:33.063Z,81.82
2022-11-08T04:44:59.936Z,81.93
2022-11-08T04:47:26.872Z,81.97
2022-11-08T04:49:54.334Z,81.87
2022-11-08T04:52:21.478Z,81.98
2022-11-08T04:54:48.618Z,81.89
2022-11-08T04:57:16.399Z,82.15
2022-11-08T04:59:43.611Z,82.06
2022-11-08T05:02:10.714Z,82.07
2022-11-08T05:04:37.611Z,82.16
2022-11-08T05:07:04.454Z,82.13
2022-11-08T05:09:33.541Z,82.21
2022-11-08T05:12:00.807Z,82.24
2022-11-08T05:14:27.724Z,82.31
2022-11-08T05:16:54.658Z,82.51
2022-11-08T05:19:35.904Z,82.51
2022-11-08T05:22:20.590Z,82.70
2022-11-08T05:24:47.406Z,82.77
2022-11-08T05:27:14.361Z,82.83
2022-11-08T05:29:42.347Z,82.72
2022-11-08T05:32:09.615Z,82.85
2022-11-08T05:34:36.749Z,82.80
2022-11-08T05:37:03.618Z,82.95
2022-11-08T05:39:32.283Z,83.03
2022-11-08T05:41:59.454Z,83.04
2022-11-08T05:44:26.301Z,82.94
2022-11-08T05:46:53.181Z,83.08
2022-11-08T05:49:20.127Z,83.09
2022-11-08T05:51:47.352Z,83.08
2022-11-08T05:54:14.237Z,83.17
2022-11-08T05:56:41.111Z,83.20
2022-11-08T05:59:08.112Z,83.17
2022-11-08T06:01:35.259Z,83.09
2022-11-08T06:04:02.132Z,83.07
2022-11-08T06:06:28.958Z,83.08
2022-11-08T06:08:55.991Z,82.96
2022-11-08T06:11:25.575Z,83.08
2022-11-08T06:13:53.433Z,83.10
2022-11-08T06:16:21.692Z,83.07
2022-11-08T06:18:48.793Z,82.69
2022-11-08T06:21:18.800Z,82.51
2022-11-08T06:23:46.115Z,82.12
2022-11-08T06:26:13.099Z,81.87
2022-11-08T06:28:40.431Z,81.51
2022-11-08T06:31:08.137Z,81.06
2022-11-08T06:33:35.270Z,80.63
2022-11-08T06:36:02.730Z,80.33
2022-11-08T06:38:30.058Z,79.73
2022-11-08T06:40:59.715Z,79.09
2022-11-08T06:43:27.255Z,78.72
2022-11-08T06:45:54.579Z,78.45
2022-11-08T06:48:21.421Z,78.30
2022-11-08T06:50:48.606Z,78.17
2022-11-08T06:53:16.486Z,78.14
2022-11-08T06:55:44.017Z,78.21
2022-11-08T06:58:11.888Z,78.29
2022-11-08T07:00:39.047Z,78.26
2022-11-08T07:03:07.161Z,78.36
2022-11-08T07:05:36.513Z,78.30
2022-11-08T07:08:04.022Z,78.24
2022-11-08T07:10:33.156Z,78.44
2022-11-08T07:13:05.334Z,78.73
2022-11-08T07:15:32.753Z,78.32
2022-11-08T07:18:02.779Z,78.15
2022-11-08T07:20:30.676Z,78.07
2022-11-08T07:22:58.767Z,78.16
2022-11-08T07:25:26.152Z,78.53
2022-11-08T07:27:55.511Z,78.59
2022-11-08T07:30:22.490Z,78.34
2022-11-08T07:32:49.482Z,77.75
2022-11-08T07:35:16.387Z,77.20
2022-11-08T07:37:43.488Z,76.43
2022-11-08T07:40:13.300Z,74.97
2022-11-08T07:43:09.629Z,74.35
2022-11-08T07:45:26.377Z,73.51
2022-11-08T07:48:03.404Z,73.19
2022-11-08T07:50:34.378Z,72.50
2022-11-08T07:53:01.203Z,71.52
2022-11-08T07:55:28.498Z,70.15
2022-11-08T07:58:01.385Z,69.46
2022-11-08T08:00:28.311Z,68.99
2022-11-08T08:03:00.495Z,68.80
2022-11-08T08:05:28.262Z,68.11
2022-11-08T08:07:57.286Z,67.57
2022-11-08T08:10:24.150Z,67.80
2022-11-08T08:12:51.206Z,67.58
2022-11-08T08:15:18.240Z,67.29
2022-11-08T08:17:45.192Z,66.90
2022-11-08T08:20:14.393Z,65.49
2022-11-08T08:22:46.071Z,64.88
2022-11-08T08:25:13.907Z,63.72
2022-11-08T08:27:40.855Z,62.82
2022-11-08T08:30:09.872Z,62.45
2022-11-08T08:32:36.723Z,61.57
2022-11-08T08:35:03.942Z,61.29
2022-11-08T08:37:31.591Z,60.21
2022-11-08T08:39:58.523Z,59.21
2022-11-08T08:42:25.377Z,58.63
2022-11-08T08:44:52.515Z,57.55
2022-11-08T08:47:19.357Z,57.39
2022-11-08T08:49:46.199Z,57.22
2022-11-08T08:52:13.075Z,56.27
2022-11-08T08:54:39.888Z,55.52
2022-11-08T08:57:06.883Z,55.51
2022-11-08T09:02:20.887Z,55.21
2022-11-08T09:04:47.726Z,55.53
2022-11-08T09:07:14.690Z,55.06
2022-11-08T09:09:41.752Z,55.06
2022-11-08T09:12:11.777Z,55.36
2022-11-08T09:14:41.523Z,55.08
2022-11-08T09:17:08.667Z,54.75
2022-11-08T09:19:35.627Z,55.03
2022-11-08T09:22:02.747Z,54.66
2022-11-08T09:24:29.781Z,54.62
2022-11-08T09:26:56.645Z,54.57
2022-11-08T09:29:23.758Z,53.65
2022-11-08T09:31:50.791Z,53.07
2022-11-08T09:34:20.630Z,52.79
2022-11-08T09:36:48.729Z,53.06
2022-11-08T09:39:16.460Z,52.64
2022-11-08T09:42:08.187Z,52.20
2022-11-08T09:44:59.099Z,52.02
2022-11-08T09:47:30.781Z,51.41
2022-11-08T09:50:05.268Z,51.81
2022-11-08T09:52:34.430Z,51.17
2022-11-08T09:55:12.242Z,50.12
2022-11-08T09:57:51.647Z,50.48
2022-11-08T10:00:19.568Z,50.91
2022-11-08T10:02:46.515Z,50.12
2022-11-08T10:05:17.441Z,50.25
2022-11-08T10:07:50.895Z,50.33
2022-11-08T10:10:41.953Z,50.54
2022-11-08T10:13:18.175Z,50.64
2022-11-08T10:15:54.749Z,50.89
2022-11-08T10:18:43.144Z,49.97
2022-11-08T10:21:22.032Z,49.79
2022-11-08T10:23:56.081Z,49.62
2022-11-08T10:26:27.465Z,49.68
2022-11-08T10:29:00.610Z,50.36
2022-11-08T10:31:33.160Z,50.48
2022-11-08T10:34:02.991Z,51.24
2022-11-08T10:36:35.912Z,50.79
2022-11-08T10:39:11.457Z,50.93
2022-11-08T10:41:45.149Z,51.10
2022-11-08T10:44:16.806Z,50.94
2022-11-08T10:46:46.053Z,51.00
2022-11-08T10:49:17.693Z,50.95
2022-11-08T10:51:46.555Z,49.90
2022-11-08T10:54:45.682Z,49.74
2022-11-08T10:57:13.928Z,50.33
2022-11-08T10:59:41.554Z,50.51
2022-11-08T11:02:21.699Z,50.48
2022-11-08T11:04:49.334Z,50.25
2022-11-08T11:07:39.013Z,50.50
2022-11-08T11:10:26.061Z,50.01
2022-11-08T11:13:01.146Z,50.31
2022-11-08T11:15:34.123Z,50.91
2022-11-08T11:18:00.941Z,51.58
2022-11-08T11:20:27.906Z,51.57
2022-11-08T11:22:55.861Z,50.59
2022-11-08T11:25:24.808Z,50.67
2022-11-08T11:27:56.624Z,49.79
2022-11-08T11:30:33.566Z,49.87
2022-11-08T11:33:07.578Z,50.51
2022-11-08T11:35:41.385Z,50.92
2022-11-08T11:38:16.064Z,51.30
2022-11-08T11:40:47.145Z,51.36
2022-11-08T11:43:21.523Z,50.62
2022-11-08T11:45:55.983Z,50.33
2022-11-08T11:48:27.472Z,50.66
2022-11-08T11:50:54.803Z,50.97
2022-11-08T11:53:25.510Z,51.66
2022-11-08T11:56:27.360Z,51.67
2022-11-08T11:59:09.488Z,51.54
2022-11-08T12:01:55.111Z,51.27
2022-11-08T12:04:52.338Z,50.45
2022-11-08T12:07:24.915Z,50.78
2022-11-08T12:10:02.355Z,50.95
2022-11-08T12:12:40.908Z,51.50
2022-11-08T12:15:23.158Z,51.47
2022-11-08T12:18:10.449Z,51.35
2022-11-08T12:20:48.619Z,51.56
2022-11-08T12:23:39.135Z,51.82
2022-11-08T12:26:16.529Z,52.54
2022-11-08T12:28:56.280Z,52.61
2022-11-08T12:31:31.303Z,52.87
2022-11-08T12:34:21.442Z,52.74
2022-11-08T12:36:59.706Z,52.78
2022-11-08T12:39:36.777Z,53.24
2022-11-08T12:42:15.717Z,52.91
2022-11-08T12:45:20.932Z,53.72
2022-11-08T12:47:54.938Z,52.55
2022-11-08T12:50:30.513Z,52.28
2022-11-08T12:53:24.302Z,52.28
2022-11-08T12:55:52.764Z,52.52
2022-11-08T12:58:34.318Z,52.62
2022-11-08T13:01:06.256Z,52.88
2022-11-08T13:04:06.489Z,52.92
2022-11-08T13:06:43.120Z,52.86
2022-11-08T13:09:19.749Z,52.64
2022-11-08T13:11:56.212Z,52.65
2022-11-08T13:14:25.061Z,52.58
2022-11-08T13:17:16.458Z,52.69
2022-11-08T13:20:25.789Z,52.92
2022-11-08T13:23:12.658Z,53.64
2022-11-08T13:25:44.272Z,54.07
2022-11-08T13:28:45.207Z,54.06
2022-11-08T13:31:33.377Z,54.43
2022-11-08T13:34:32.964Z,54.57
2022-11-08T13:37:22.773Z,54.84
2022-11-08T13:40:06.698Z,54.85
2022-11-08T13:42:57.786Z,54.96
2022-11-08T13:45:31.675Z,55.11
2022-11-08T13:48:03.519Z,55.17
2022-11-08T13:50:55.536Z,55.46
2022-11-08T13:53:46.321Z,55.63
2022-11-08T13:56:46.975Z,55.84
2022-11-08T13:59:50.088Z,56.32
2022-11-08T14:02:39.099Z,56.46
2022-11-08T14:05:25.329Z,56.50
2022-11-08T14:08:18.146Z,56.64
2022-11-08T14:10:59.238Z,56.87
2022-11-08T14:13:33.578Z,56.80
2022-11-08T14:16:08.125Z,56.80
2022-11-08T14:18:39.296Z,56.84
2022-11-08T14:21:08.104Z,57.06
2022-11-08T14:23:38.462Z,57.30
2022-11-08T14:26:11.958Z,57.50
2022-11-08T14:28:40.979Z,57.63
2022-11-08T14:31:22.833Z,57.82
2022-11-08T14:33:50.086Z,57.82
2022-11-08T14:36:19.671Z,58.08
2022-11-08T14:38:51.647Z,58.29
2022-11-08T14:41:23.279Z,58.50
2022-11-08T14:43:51.969Z,58.80
2022-11-08T14:46:26.512Z,59.06
2022-11-08T14:48:55.618Z,59.34
2022-11-08T14:51:23.104Z,59.58
2022-11-08T14:53:52.296Z,59.84
2022-11-08T14:56:22.098Z,60.05
2022-11-08T14:58:53.328Z,60.31
2022-11-08T15:01:24.108Z,60.37
2022-11-08T15:03:56.607Z,60.72
2022-11-08T15:06:30.624Z,60.98
2022-11-08T15:08:58.402Z,61.15
2022-11-08T15:11:32.384Z,61.33
2022-11-08T15:14:02.115Z,61.47
2022-11-08T15:16:29.741Z,61.77
2022-11-08T15:18:56.962Z,61.94
2022-11-08T15:21:30.855Z,62.13
2022-11-08T15:24:15.288Z,62.17
2022-11-08T15:27:00.840Z,62.23
2022-11-08T15:29:27.798Z,62.56
2022-11-08T15:32:01.356Z,62.64
2022-11-08T15:34:34.793Z,62.76
2022-11-08T15:37:01.653Z,62.89
2022-11-08T15:39:38.782Z,63.14
2022-11-08T15:42:14.146Z,63.19
2022-11-08T15:45:01.709Z,63.41
2022-11-08T15:47:44.616Z,63.43
2022-11-08T15:50:20.692Z,63.68
2022-11-08T15:52:49.397Z,63.89
2022-11-08T15:55:19.481Z,63.99
2022-11-08T15:57:47.739Z,64.13
2022-11-08T16:00:22.219Z,64.23
2022-11-08T16:02:49.541Z,64.40
2022-11-08T16:05:22.882Z,64.50
2022-11-08T16:07:50.233Z,64.67
2022-11-08T16:10:19.577Z,64.83
2022-11-08T16:12:48.850Z,64.93
2022-11-08T16:15:18.807Z,65.02
2022-11-08T16:17:45.948Z,65.23
2022-11-08T16:20:27.023Z,65.18
2022-11-08T16:22:54.245Z,65.47
2022-11-08T16:25:21.086Z,65.50
2022-11-08T16:27:52.201Z,65.72
2022-11-08T16:30:20.058Z,65.82
2022-11-08T16:32:47.225Z,66.00
2022-11-08T16:35:14.435Z,66.03
2022-11-08T16:37:42.321Z,66.31
2022-11-08T16:40:18.035Z,66.32
2022-11-08T16:42:45.142Z,66.41
2022-11-08T16:45:14.244Z,66.56
2022-11-08T16:47:42.295Z,66.63
2022-11-08T16:50:14.835Z,66.76
2022-11-08T16:52:42.109Z,66.81
2022-11-08T16:55:17.629Z,66.85
2022-11-08T16:57:45.557Z,67.00
2022-11-08T17:00:15.509Z,67.16
2022-11-08T17:02:46.473Z,67.29
2022-11-08T17:05:18.819Z,67.37
2022-11-08T17:07:45.840Z,67.40
2022-11-08T17:10:16.736Z,67.42
2022-11-08T17:12:43.803Z,67.54
2022-11-08T17:15:14.901Z,67.61
2022-11-08T17:17:41.974Z,67.67
2022-11-08T17:20:12.528Z,67.89
2022-11-08T17:22:39.910Z,67.92
2022-11-08T17:25:08.423Z,68.14
2022-11-08T17:27:35.402Z,68.26
2022-11-08T17:30:02.716Z,68.34
2022-11-08T17:32:29.759Z,68.34
2022-11-08T17:34:56.722Z,68.44
2022-11-08T17:37:26.490Z,68.49
2022-11-08T17:39:55.489Z,68.61
2022-11-08T17:42:23.032Z,68.68
2022-11-08T17:44:50.031Z,68.82
2022-11-08T17:47:16.886Z,68.96
2022-11-08T17:49:44.368Z,69.08
2022-11-08T17:52:11.842Z,69.27
2022-11-08T17:54:38.675Z,69.31
2022-11-08T17:57:07.744Z,69.42
2022-11-08T17:59:35.532Z,69.47
2022-11-08T18:02:02.832Z,69.43
2022-11-08T18:04:30.612Z,69.60
2022-11-08T18:06:57.855Z,69.59
2022-11-08T18:09:24.758Z,69.74
2022-11-08T18:11:51.751Z,69.86
2022-11-08T18:14:23.007Z,70.00
2022-11-08T18:16:52.619Z,70.12
2022-11-08T18:19:19.979Z,70.47
2022-11-08T18:21:47.869Z,70.57
2022-11-08T18:24:15.202Z,70.63
2022-11-08T18:26:44.961Z,70.80
2022-11-08T18:29:12.238Z,70.97
2022-11-08T18:31:39.178Z,71.10
2022-11-08T18:34:06.267Z,71.30
2022-11-08T18:36:33.433Z,71.41
2022-11-08T18:39:02.808Z,71.67
2022-11-08T18:41:32.054Z,71.83
2022-11-08T18:44:00.839Z,71.99
2022-11-08T18:46:29.440Z,72.08
2022-11-08T18:48:56.528Z,72.25
2022-11-08T18:51:24.694Z,72.33
2022-11-08T18:53:53.097Z,72.47
2022-11-08T18:56:20.430Z,72.62
2022-11-08T18:58:48.291Z,72.69
2022-11-08T19:01:16.352Z,72.95
2022-11-08T19:03:43.523Z,72.96
2022-11-08T19:06:11.206Z,73.20
2022-11-08T19:08:38.460Z,73.35
2022-11-08T19:11:08.146Z,73.46
2022-11-08T19:13:37.011Z,73.65
2022-11-08T19:16:06.684Z,73.81
2022-11-08T19:18:34.646Z,73.94
2022-11-08T19:21:05.089Z,74.06
2022-11-08T19:23:32.237Z,74.31
2022-11-08T19:26:01.606Z,74.56
2022-11-08T19:28:32.828Z,74.77
2022-11-08T19:31:02.624Z,74.95
2022-11-08T19:33:31.190Z,75.01
2022-11-08T19:36:00.857Z,75.09
2022-11-08T19:38:27.782Z,75.24
2022-11-08T19:40:54.652Z,75.45
2022-11-08T19:43:21.682Z,75.59
2022-11-08T19:45:53.266Z,75.82
2022-11-08T19:48:20.723Z,75.91
2022-11-08T19:50:48.246Z,75.94
2022-11-08T19:53:15.276Z,76.23
2022-11-08T19:55:43.475Z,76.28
2022-11-08T19:58:10.354Z,76.61
2022-11-08T20:00:37.494Z,76.63
2022-11-08T20:03:04.419Z,76.93
2022-11-08T20:05:31.261Z,77.32
2022-11-08T20:07:58.320Z,77.26
2022-11-08T20:10:26.904Z,77.30
2022-11-08T20:12:53.779Z,77.36
2022-11-08T20:15:20.782Z,77.65
2022-11-08T20:17:47.718Z,77.72
2022-11-08T20:20:15.381Z,77.94
2022-11-08T20:22:47.848Z,77.96
2022-11-08T20:25:14.983Z,78.10
2022-11-08T20:27:42.211Z,78.34
2022-11-08T20:30:11.324Z,78.57
2022-11-08T20:32:38.268Z,78.42
2022-11-08T20:35:05.379Z,78.80
2022-11-08T20:37:32.182Z,78.86
2022-11-08T20:39:59.116Z,78.97
2022-11-08T20:42:25.984Z,79.01
2022-11-08T20:44:53.449Z,79.06
2022-11-08T20:47:20.418Z,78.97
2022-11-08T20:49:47.354Z,79.03
2022-11-08T20:52:16.708Z,79.11
2022-11-08T20:54:44.138Z,79.10
2022-11-08T20:57:11.348Z,79.15
2022-11-08T20:59:38.351Z,79.25
2022-11-08T21:02:05.322Z,79.46
2022-11-08T21:04:32.377Z,79.40
2022-11-08T21:08:00.291Z,79.42
2022-11-08T21:09:50.305Z,79.41
2022-11-08T21:12:18.742Z,79.69
2022-11-08T21:14:45.671Z,79.70
2022-11-08T21:17:21.716Z,79.78
2022-11-08T21:19:50.988Z,79.88
2022-11-08T21:22:18.209Z,80.05
2022-11-08T21:24:46.360Z,80.04
2022-11-08T21:27:13.384Z,80.21
2022-11-08T21:29:40.211Z,80.45
2022-11-08T21:32:07.891Z,80.51
2022-11-08T21:34:34.811Z,80.70
2022-11-08T21:37:01.504Z,80.69
2022-11-08T21:39:28.328Z,80.97
2022-11-08T21:41:55.078Z,80.98
2022-11-08T21:44:21.822Z,81.10
2022-11-08T21:46:48.674Z,81.10
2022-11-08T21:49:15.740Z,81.18
2022-11-08T21:51:42.596Z,81.31
2022-11-08T21:54:09.533Z,81.47
2022-11-08T21:56:38.949Z,81.51
2022-11-08T21:59:06.083Z,81.78
2022-11-08T22:01:32.875Z,81.68
2022-11-08T22:03:59.815Z,81.92
2022-11-08T22:06:26.714Z,82.06
2022-11-08T22:08:53.485Z,82.02
2022-11-08T22:11:20.428Z,82.14
2022-11-08T22:13:47.168Z,81.98
2022-11-08T22:16:13.987Z,82.17
2022-11-08T22:21:43.145Z,82.36
2022-11-08T22:24:12.241Z,82.31
2022-11-08T22:26:39.461Z,82.37
2022-11-08T22:29:07.226Z,82.41
2022-11-08T22:31:34.434Z,82.41
2022-11-08T22:34:01.486Z,82.35
2022-11-08T22:36:28.682Z,82.30
2022-11-08T22:38:55.755Z,82.56
2022-11-08T22:41:23.484Z,82.50
2022-11-08T22:43:50.508Z,82.55
2022-11-08T22:46:17.556Z,82.59
2022-11-08T22:48:44.346Z,82.55
2022-11-08T22:51:11.429Z,82.57
2022-11-08T22:53:38.324Z,82.71
2022-11-08T22:56:10.802Z,82.77
2022-11-08T22:58:37.923Z,82.77
2022-11-08T23:01:04.803Z,82.79
2022-11-08T23:03:31.650Z,82.80
2022-11-08T23:05:59.412Z,82.81
2022-11-08T23:08:27.500Z,82.90
2022-11-08T23:11:12.673Z,82.81
2022-11-08T23:13:57.944Z,83.00
2022-11-08T23:16:36.509Z,83.07
2022-11-08T23:19:22.834Z,83.02
2022-11-08T23:22:07.285Z,83.15
2022-11-08T23:24:34.184Z,83.38
2022-11-08T23:27:19.077Z,83.25
2022-11-08T23:30:03.576Z,83.32
2022-11-08T23:32:30.606Z,83.45
2022-11-08T23:34:57.447Z,83.37
2022-11-08T23:37:24.202Z,83.39
2022-11-08T23:40:09.298Z,83.46
2022-11-08T23:42:53.408Z,83.57
2022-11-08T23:45:20.440Z,83.59
2022-11-08T23:47:47.282Z,83.65
2022-11-08T23:50:14.627Z,83.63
2022-11-08T23:52:42.193Z,83.61
2022-11-08T23:55:10.919Z,83.74
2022-11-08T23:57:37.767Z,83.76
